sensor_id;sensor_type;location;lat;lon;timestamp;P1;durP1;ratioP1;P2;durP2;ratioP2
12493;SDS011;8260;51.422;6.786;2022-11-24T00:01:03;16.35;;;4.60;;
12493;SDS011;8260;51.422;6.786;2022-11-24T00:03:32;12.50;;;3.78;;
12493;SDS011;8260;51.422;6.786;2022-11-24T00:06:01;17.00;;;4.70;;
12493;SDS011;8260;51.422;6.786;2022-11-24T00:08:32;11.63;;;4.30;;
12493;SDS011;8260;51.422;6.786;2022-11-24T00:11:03;14.23;;;4.00;;
12493;SDS011;8260;51.422;6.786;2022-11-24T00:13:32;12.32;;;4.00;;
12493;SDS011;8260;51.422;6.786;2022-11-24T00:16:05;17.67;;;4.75;;
12493;SDS011;8260;51.422;6.786;2022-11-24T00:18:33;10.18;;;4.22;;
12493;SDS011;8260;51.422;6.786;2022-11-24T00:21:02;19.73;;;4.70;;
12493;SDS011;8260;51.422;6.786;2022-11-24T00:23:32;14.43;;;4.47;;
12493;SDS011;8260;51.422;6.786;2022-11-24T00:26:04;16.48;;;4.45;;
12493;SDS011;8260;51.422;6.786;2022-11-24T00:28:33;13.57;;;4.30;;
12493;SDS011;8260;51.422;6.786;2022-11-24T00:31:02;12.10;;;3.88;;
12493;SDS011;8260;51.422;6.786;2022-11-24T00:33:31;17.38;;;4.18;;
12493;SDS011;8260;51.422;6.786;2022-11-24T00:35:59;20.77;;;4.38;;
12493;SDS011;8260;51.422;6.786;2022-11-24T00:38:28;13.65;;;4.78;;
12493;SDS011;8260;51.422;6.786;2022-11-24T00:40:57;16.85;;;4.13;;
12493;SDS011;8260;51.422;6.786;2022-11-24T00:43:26;15.55;;;4.03;;
12493;SDS011;8260;51.422;6.786;2022-11-24T00:45:54;15.88;;;4.25;;
12493;SDS011;8260;51.422;6.786;2022-11-24T00:48:23;16.42;;;4.05;;
12493;SDS011;8260;51.422;6.786;2022-11-24T00:50:55;13.45;;;4.53;;
12493;SDS011;8260;51.422;6.786;2022-11-24T00:53:24;14.30;;;4.10;;
12493;SDS011;8260;51.422;6.786;2022-11-24T00:55:52;12.90;;;3.88;;
12493;SDS011;8260;51.422;6.786;2022-11-24T00:58:22;12.25;;;3.42;;
12493;SDS011;8260;51.422;6.786;2022-11-24T01:00:51;18.25;;;4.47;;
12493;SDS011;8260;51.422;6.786;2022-11-24T01:03:19;13.15;;;3.72;;
12493;SDS011;8260;51.422;6.786;2022-11-24T01:05:48;18.00;;;4.00;;
12493;SDS011;8260;51.422;6.786;2022-11-24T01:08:16;16.20;;;3.88;;
12493;SDS011;8260;51.422;6.786;2022-11-24T01:10:45;11.05;;;3.13;;
12493;SDS011;8260;51.422;6.786;2022-11-24T01:13:13;12.98;;;3.90;;
12493;SDS011;8260;51.422;6.786;2022-11-24T01:15:43;13.93;;;4.25;;
12493;SDS011;8260;51.422;6.786;2022-11-24T01:18:11;11.23;;;4.22;;
12493;SDS011;8260;51.422;6.786;2022-11-24T01:20:39;14.52;;;3.97;;
12493;SDS011;8260;51.422;6.786;2022-11-24T01:23:08;21.42;;;4.75;;
12493;SDS011;8260;51.422;6.786;2022-11-24T01:25:38;16.92;;;3.75;;
12493;SDS011;8260;51.422;6.786;2022-11-24T01:28:06;13.25;;;4.30;;
12493;SDS011;8260;51.422;6.786;2022-11-24T01:30:35;18.40;;;3.38;;
12493;SDS011;8260;51.422;6.786;2022-11-24T01:33:04;14.43;;;3.75;;
12493;SDS011;8260;51.422;6.786;2022-11-24T01:35:33;15.52;;;3.47;;
12493;SDS011;8260;51.422;6.786;2022-11-24T01:38:01;19.00;;;3.42;;
12493;SDS011;8260;51.422;6.786;2022-11-24T01:40:29;16.77;;;3.40;;
12493;SDS011;8260;51.422;6.786;2022-11-24T01:42:58;12.90;;;3.70;;
12493;SDS011;8260;51.422;6.786;2022-11-24T01:45:29;14.63;;;3.47;;
12493;SDS011;8260;51.422;6.786;2022-11-24T01:47:59;12.45;;;3.50;;
12493;SDS011;8260;51.422;6.786;2022-11-24T01:50:30;14.10;;;3.58;;
12493;SDS011;8260;51.422;6.786;2022-11-24T01:52:59;10.90;;;3.72;;
12493;SDS011;8260;51.422;6.786;2022-11-24T01:55:28;12.45;;;3.05;;
12493;SDS011;8260;51.422;6.786;2022-11-24T01:57:58;16.75;;;3.88;;
12493;SDS011;8260;51.422;6.786;2022-11-24T02:00:31;10.07;;;2.53;;
12493;SDS011;8260;51.422;6.786;2022-11-24T02:03:00;12.98;;;3.72;;
12493;SDS011;8260;51.422;6.786;2022-11-24T02:05:31;17.67;;;3.15;;
12493;SDS011;8260;51.422;6.786;2022-11-24T02:08:04;11.38;;;3.13;;
12493;SDS011;8260;51.422;6.786;2022-11-24T02:10:35;11.35;;;3.53;;
12493;SDS011;8260;51.422;6.786;2022-11-24T02:13:04;13.30;;;3.65;;
12493;SDS011;8260;51.422;6.786;2022-11-24T02:15:32;12.00;;;3.38;;
12493;SDS011;8260;51.422;6.786;2022-11-24T02:18:01;16.00;;;3.53;;
12493;SDS011;8260;51.422;6.786;2022-11-24T02:20:31;13.98;;;4.20;;
12493;SDS011;8260;51.422;6.786;2022-11-24T02:23:00;11.15;;;3.38;;
12493;SDS011;8260;51.422;6.786;2022-11-24T02:25:30;17.50;;;4.35;;
12493;SDS011;8260;51.422;6.786;2022-11-24T02:28:04;15.57;;;3.35;;
12493;SDS011;8260;51.422;6.786;2022-11-24T02:30:33;13.75;;;3.80;;
12493;SDS011;8260;51.422;6.786;2022-11-24T02:33:02;12.85;;;3.85;;
12493;SDS011;8260;51.422;6.786;2022-11-24T02:35:30;10.18;;;3.85;;
12493;SDS011;8260;51.422;6.786;2022-11-24T02:37:59;14.52;;;3.47;;
12493;SDS011;8260;51.422;6.786;2022-11-24T02:40:27;18.48;;;4.28;;
12493;SDS011;8260;51.422;6.786;2022-11-24T02:42:56;18.98;;;4.07;;
12493;SDS011;8260;51.422;6.786;2022-11-24T02:45:27;15.75;;;3.88;;
12493;SDS011;8260;51.422;6.786;2022-11-24T02:47:56;14.57;;;3.92;;
12493;SDS011;8260;51.422;6.786;2022-11-24T02:50:25;10.45;;;3.50;;
12493;SDS011;8260;51.422;6.786;2022-11-24T02:52:53;15.50;;;4.32;;
12493;SDS011;8260;51.422;6.786;2022-11-24T02:55:21;13.32;;;3.38;;
12493;SDS011;8260;51.422;6.786;2022-11-24T02:57:50;12.85;;;3.65;;
12493;SDS011;8260;51.422;6.786;2022-11-24T03:00:18;16.30;;;4.10;;
12493;SDS011;8260;51.422;6.786;2022-11-24T03:02:48;15.40;;;4.65;;
12493;SDS011;8260;51.422;6.786;2022-11-24T03:05:16;11.52;;;3.63;;
12493;SDS011;8260;51.422;6.786;2022-11-24T03:07:45;16.27;;;3.50;;
12493;SDS011;8260;51.422;6.786;2022-11-24T03:10:13;15.18;;;4.03;;
12493;SDS011;8260;51.422;6.786;2022-11-24T03:12:42;16.95;;;4.32;;
12493;SDS011;8260;51.422;6.786;2022-11-24T03:15:10;13.05;;;3.95;;
12493;SDS011;8260;51.422;6.786;2022-11-24T03:17:39;17.67;;;3.90;;
12493;SDS011;8260;51.422;6.786;2022-11-24T03:20:09;12.95;;;3.95;;
12493;SDS011;8260;51.422;6.786;2022-11-24T03:22:38;18.45;;;4.15;;
12493;SDS011;8260;51.422;6.786;2022-11-24T03:25:07;13.75;;;3.65;;
12493;SDS011;8260;51.422;6.786;2022-11-24T03:27:35;23.38;;;4.70;;
12493;SDS011;8260;51.422;6.786;2022-11-24T03:30:04;12.52;;;3.67;;
12493;SDS011;8260;51.422;6.786;2022-11-24T03:32:32;17.48;;;4.10;;
12493;SDS011;8260;51.422;6.786;2022-11-24T03:35:01;13.20;;;3.65;;
12493;SDS011;8260;51.422;6.786;2022-11-24T03:37:31;15.40;;;3.70;;
12493;SDS011;8260;51.422;6.786;2022-11-24T03:39:59;23.50;;;4.68;;
12493;SDS011;8260;51.422;6.786;2022-11-24T03:42:28;12.23;;;3.78;;
12493;SDS011;8260;51.422;6.786;2022-11-24T03:44:56;13.93;;;3.40;;
12493;SDS011;8260;51.422;6.786;2022-11-24T03:47:48;16.42;;;4.07;;
12493;SDS011;8260;51.422;6.786;2022-11-24T03:50:16;17.65;;;4.18;;
12493;SDS011;8260;51.422;6.786;2022-11-24T03:52:46;13.20;;;3.88;;
12493;SDS011;8260;51.422;6.786;2022-11-24T03:55:15;14.68;;;4.18;;
12493;SDS011;8260;51.422;6.786;2022-11-24T03:57:43;19.00;;;3.70;;
12493;SDS011;8260;51.422;6.786;2022-11-24T04:00:11;15.52;;;4.07;;
12493;SDS011;8260;51.422;6.786;2022-11-24T04:02:40;14.02;;;3.72;;
12493;SDS011;8260;51.422;6.786;2022-11-24T04:05:08;12.18;;;4.05;;
12493;SDS011;8260;51.422;6.786;2022-11-24T04:07:37;11.75;;;4.00;;
12493;SDS011;8260;51.422;6.786;2022-11-24T04:10:07;17.63;;;4.03;;
12493;SDS011;8260;51.422;6.786;2022-11-24T04:12:36;19.60;;;4.00;;
12493;SDS011;8260;51.422;6.786;2022-11-24T04:15:09;15.50;;;4.45;;
12493;SDS011;8260;51.422;6.786;2022-11-24T04:17:38;16.30;;;3.72;;
12493;SDS011;8260;51.422;6.786;2022-11-24T04:20:07;17.65;;;3.90;;
12493;SDS011;8260;51.422;6.786;2022-11-24T04:22:35;16.67;;;3.90;;
12493;SDS011;8260;51.422;6.786;2022-11-24T04:25:04;17.05;;;4.38;;
12493;SDS011;8260;51.422;6.786;2022-11-24T04:27:34;20.48;;;4.85;;
12493;SDS011;8260;51.422;6.786;2022-11-24T04:30:03;16.90;;;4.32;;
12493;SDS011;8260;51.422;6.786;2022-11-24T04:32:32;22.40;;;5.07;;
12493;SDS011;8260;51.422;6.786;2022-11-24T04:35:01;23.05;;;4.40;;
12493;SDS011;8260;51.422;6.786;2022-11-24T04:37:29;17.67;;;4.55;;
12493;SDS011;8260;51.422;6.786;2022-11-24T04:39:57;14.95;;;3.78;;
12493;SDS011;8260;51.422;6.786;2022-11-24T04:42:26;14.98;;;4.00;;
12493;SDS011;8260;51.422;6.786;2022-11-24T04:44:56;18.67;;;4.55;;
12493;SDS011;8260;51.422;6.786;2022-11-24T04:47:24;17.05;;;4.43;;
12493;SDS011;8260;51.422;6.786;2022-11-24T04:49:53;13.88;;;3.40;;
12493;SDS011;8260;51.422;6.786;2022-11-24T04:52:22;13.68;;;3.47;;
12493;SDS011;8260;51.422;6.786;2022-11-24T04:54:50;20.20;;;3.55;;
12493;SDS011;8260;51.422;6.786;2022-11-24T04:57:20;16.92;;;3.83;;
12493;SDS011;8260;51.422;6.786;2022-11-24T04:59:48;12.63;;;3.53;;
12493;SDS011;8260;51.422;6.786;2022-11-24T05:02:19;20.00;;;4.95;;
12493;SDS011;8260;51.422;6.786;2022-11-24T05:04:48;19.50;;;4.18;;
12493;SDS011;8260;51.422;6.786;2022-11-24T05:07:16;16.85;;;3.88;;
12493;SDS011;8260;51.422;6.786;2022-11-24T05:09:45;22.88;;;4.80;;
12493;SDS011;8260;51.422;6.786;2022-11-24T05:12:32;19.40;;;4.03;;
12493;SDS011;8260;51.422;6.786;2022-11-24T05:15:00;11.35;;;3.42;;
12493;SDS011;8260;51.422;6.786;2022-11-24T05:17:31;13.13;;;3.90;;
12493;SDS011;8260;51.422;6.786;2022-11-24T05:20:00;18.88;;;4.40;;
12493;SDS011;8260;51.422;6.786;2022-11-24T05:22:29;14.85;;;3.95;;
12493;SDS011;8260;51.422;6.786;2022-11-24T05:24:57;26.08;;;5.80;;
12493;SDS011;8260;51.422;6.786;2022-11-24T05:27:27;18.90;;;4.20;;
12493;SDS011;8260;51.422;6.786;2022-11-24T05:29:55;14.48;;;3.53;;
12493;SDS011;8260;51.422;6.786;2022-11-24T05:32:23;23.58;;;4.38;;
12493;SDS011;8260;51.422;6.786;2022-11-24T05:34:53;20.33;;;4.07;;
12493;SDS011;8260;51.422;6.786;2022-11-24T05:37:22;18.20;;;4.00;;
12493;SDS011;8260;51.422;6.786;2022-11-24T05:39:50;18.17;;;4.38;;
12493;SDS011;8260;51.422;6.786;2022-11-24T05:42:19;19.98;;;4.00;;
12493;SDS011;8260;51.422;6.786;2022-11-24T05:45:13;20.45;;;4.38;;
12493;SDS011;8260;51.422;6.786;2022-11-24T05:47:42;19.17;;;5.15;;
12493;SDS011;8260;51.422;6.786;2022-11-24T05:50:13;18.17;;;4.78;;
12493;SDS011;8260;51.422;6.786;2022-11-24T05:52:41;25.50;;;4.30;;
12493;SDS011;8260;51.422;6.786;2022-11-24T05:55:10;19.27;;;4.47;;
12493;SDS011;8260;51.422;6.786;2022-11-24T05:57:39;19.08;;;3.97;;
12493;SDS011;8260;51.422;6.786;2022-11-24T06:00:09;21.95;;;4.05;;
12493;SDS011;8260;51.422;6.786;2022-11-24T06:02:38;21.70;;;4.28;;
12493;SDS011;8260;51.422;6.786;2022-11-24T06:05:07;17.20;;;4.57;;
12493;SDS011;8260;51.422;6.786;2022-11-24T06:07:37;18.55;;;3.95;;
12493;SDS011;8260;51.422;6.786;2022-11-24T06:10:05;15.02;;;4.43;;
12493;SDS011;8260;51.422;6.786;2022-11-24T06:12:34;16.83;;;4.30;;
12493;SDS011;8260;51.422;6.786;2022-11-24T06:15:03;20.73;;;4.55;;
12493;SDS011;8260;51.422;6.786;2022-11-24T06:17:31;22.23;;;4.28;;
12493;SDS011;8260;51.422;6.786;2022-11-24T06:20:00;17.45;;;3.53;;
12493;SDS011;8260;51.422;6.786;2022-11-24T06:22:28;18.73;;;4.68;;
12493;SDS011;8260;51.422;6.786;2022-11-24T06:24:58;17.15;;;3.90;;
12493;SDS011;8260;51.422;6.786;2022-11-24T06:27:26;13.77;;;4.25;;
12493;SDS011;8260;51.422;6.786;2022-11-24T06:29:55;15.95;;;4.07;;
12493;SDS011;8260;51.422;6.786;2022-11-24T06:32:23;18.98;;;3.88;;
12493;SDS011;8260;51.422;6.786;2022-11-24T06:34:51;17.38;;;3.78;;
12493;SDS011;8260;51.422;6.786;2022-11-24T06:37:20;24.27;;;4.65;;
12493;SDS011;8260;51.422;6.786;2022-11-24T06:39:48;16.88;;;4.15;;
12493;SDS011;8260;51.422;6.786;2022-11-24T06:42:18;19.95;;;4.28;;
12493;SDS011;8260;51.422;6.786;2022-11-24T06:44:46;11.40;;;3.63;;
12493;SDS011;8260;51.422;6.786;2022-11-24T06:47:15;18.58;;;3.97;;
12493;SDS011;8260;51.422;6.786;2022-11-24T06:49:43;20.65;;;4.82;;
12493;SDS011;8260;51.422;6.786;2022-11-24T06:52:12;13.63;;;4.20;;
12493;SDS011;8260;51.422;6.786;2022-11-24T06:54:40;15.13;;;3.83;;
12493;SDS011;8260;51.422;6.786;2022-11-24T06:57:08;17.77;;;3.78;;
12493;SDS011;8260;51.422;6.786;2022-11-24T06:59:38;12.02;;;4.00;;
12493;SDS011;8260;51.422;6.786;2022-11-24T07:02:07;13.40;;;3.78;;
12493;SDS011;8260;51.422;6.786;2022-11-24T07:04:36;15.40;;;3.65;;
12493;SDS011;8260;51.422;6.786;2022-11-24T07:07:04;16.52;;;3.92;;
12493;SDS011;8260;51.422;6.786;2022-11-24T07:09:32;14.25;;;4.07;;
12493;SDS011;8260;51.422;6.786;2022-11-24T07:12:01;13.80;;;3.67;;
12493;SDS011;8260;51.422;6.786;2022-11-24T07:14:31;11.52;;;3.33;;
12493;SDS011;8260;51.422;6.786;2022-11-24T07:17:01;9.68;;;3.10;;
12493;SDS011;8260;51.422;6.786;2022-11-24T07:19:30;10.13;;;3.35;;
12493;SDS011;8260;51.422;6.786;2022-11-24T07:21:58;9.93;;;3.13;;
12493;SDS011;8260;51.422;6.786;2022-11-24T07:24:26;8.48;;;2.90;;
12493;SDS011;8260;51.422;6.786;2022-11-24T07:26:55;12.98;;;4.00;;
12493;SDS011;8260;51.422;6.786;2022-11-24T07:29:23;9.35;;;3.47;;
12493;SDS011;8260;51.422;6.786;2022-11-24T07:31:51;12.50;;;3.13;;
12493;SDS011;8260;51.422;6.786;2022-11-24T07:34:21;9.35;;;2.80;;
12493;SDS011;8260;51.422;6.786;2022-11-24T07:36:49;6.55;;;2.72;;
12493;SDS011;8260;51.422;6.786;2022-11-24T07:39:18;10.38;;;2.70;;
12493;SDS011;8260;51.422;6.786;2022-11-24T07:41:46;8.13;;;2.70;;
12493;SDS011;8260;51.422;6.786;2022-11-24T07:44:14;10.07;;;2.90;;
12493;SDS011;8260;51.422;6.786;2022-11-24T07:46:43;8.20;;;2.78;;
12493;SDS011;8260;51.422;6.786;2022-11-24T07:49:11;8.20;;;2.90;;
12493;SDS011;8260;51.422;6.786;2022-11-24T07:51:41;6.50;;;2.50;;
12493;SDS011;8260;51.422;6.786;2022-11-24T07:54:09;5.15;;;2.20;;
12493;SDS011;8260;51.422;6.786;2022-11-24T07:56:38;7.22;;;2.67;;
12493;SDS011;8260;51.422;6.786;2022-11-24T07:59:06;5.47;;;1.83;;
12493;SDS011;8260;51.422;6.786;2022-11-24T08:01:34;3.65;;;2.10;;
12493;SDS011;8260;51.422;6.786;2022-11-24T08:04:03;5.63;;;1.90;;
12493;SDS011;8260;51.422;6.786;2022-11-24T08:06:31;5.35;;;2.10;;
12493;SDS011;8260;51.422;6.786;2022-11-24T08:09:08;7.72;;;1.98;;
12493;SDS011;8260;51.422;6.786;2022-11-24T08:11:36;6.63;;;2.05;;
12493;SDS011;8260;51.422;6.786;2022-11-24T08:14:05;11.20;;;1.90;;
12493;SDS011;8260;51.422;6.786;2022-11-24T08:16:33;3.17;;;1.58;;
12493;SDS011;8260;51.422;6.786;2022-11-24T08:19:02;4.13;;;1.80;;
12493;SDS011;8260;51.422;6.786;2022-11-24T08:21:30;3.97;;;1.48;;
12493;SDS011;8260;51.422;6.786;2022-11-24T08:23:58;5.80;;;1.65;;
12493;SDS011;8260;51.422;6.786;2022-11-24T08:26:28;8.30;;;2.70;;
12493;SDS011;8260;51.422;6.786;2022-11-24T08:28:57;4.18;;;1.55;;
12493;SDS011;8260;51.422;6.786;2022-11-24T08:31:26;4.03;;;1.23;;
12493;SDS011;8260;51.422;6.786;2022-11-24T08:33:59;2.25;;;1.58;;
12493;SDS011;8260;51.422;6.786;2022-11-24T08:36:28;3.42;;;1.55;;
12493;SDS011;8260;51.422;6.786;2022-11-24T08:38:57;6.28;;;1.70;;
12493;SDS011;8260;51.422;6.786;2022-11-24T08:41:26;4.70;;;1.75;;
12493;SDS011;8260;51.422;6.786;2022-11-24T08:43:56;4.47;;;1.60;;
12493;SDS011;8260;51.422;6.786;2022-11-24T08:46:24;5.35;;;1.63;;
12493;SDS011;8260;51.422;6.786;2022-11-24T08:48:53;4.72;;;2.30;;
12493;SDS011;8260;51.422;6.786;2022-11-24T08:51:22;6.20;;;1.90;;
12493;SDS011;8260;51.422;6.786;2022-11-24T08:53:52;7.85;;;2.13;;
12493;SDS011;8260;51.422;6.786;2022-11-24T08:56:21;5.57;;;1.98;;
12493;SDS011;8260;51.422;6.786;2022-11-24T08:58:49;3.08;;;1.77;;
12493;SDS011;8260;51.422;6.786;2022-11-24T09:01:19;9.23;;;2.60;;
12493;SDS011;8260;51.422;6.786;2022-11-24T09:03:48;6.55;;;2.65;;
12493;SDS011;8260;51.422;6.786;2022-11-24T09:06:17;6.72;;;2.00;;
12493;SDS011;8260;51.422;6.786;2022-11-24T09:08:48;6.10;;;2.13;;
12493;SDS011;8260;51.422;6.786;2022-11-24T09:11:16;7.65;;;2.33;;
12493;SDS011;8260;51.422;6.786;2022-11-24T09:13:45;7.43;;;2.65;;
12493;SDS011;8260;51.422;6.786;2022-11-24T09:16:14;7.57;;;2.17;;
12493;SDS011;8260;51.422;6.786;2022-11-24T09:18:45;5.55;;;2.28;;
12493;SDS011;8260;51.422;6.786;2022-11-24T09:21:14;5.47;;;2.45;;
12493;SDS011;8260;51.422;6.786;2022-11-24T09:23:43;6.25;;;2.13;;
12493;SDS011;8260;51.422;6.786;2022-11-24T09:26:13;5.78;;;2.42;;
12493;SDS011;8260;51.422;6.786;2022-11-24T09:28:41;6.20;;;2.65;;
12493;SDS011;8260;51.422;6.786;2022-11-24T09:31:11;11.95;;;2.60;;
12493;SDS011;8260;51.422;6.786;2022-11-24T09:33:40;7.22;;;2.63;;
12493;SDS011;8260;51.422;6.786;2022-11-24T09:36:10;6.25;;;2.40;;
12493;SDS011;8260;51.422;6.786;2022-11-24T09:38:39;6.43;;;2.38;;
12493;SDS011;8260;51.422;6.786;2022-11-24T09:41:18;6.88;;;2.67;;
12493;SDS011;8260;51.422;6.786;2022-11-24T09:43:49;6.20;;;2.42;;
12493;SDS011;8260;51.422;6.786;2022-11-24T09:46:24;8.50;;;2.75;;
12493;SDS011;8260;51.422;6.786;2022-11-24T09:48:55;8.77;;;2.92;;
12493;SDS011;8260;51.422;6.786;2022-11-24T09:51:26;8.45;;;2.63;;
12493;SDS011;8260;51.422;6.786;2022-11-24T09:53:55;9.23;;;2.97;;
12493;SDS011;8260;51.422;6.786;2022-11-24T09:56:26;11.38;;;2.90;;
12493;SDS011;8260;51.422;6.786;2022-11-24T09:58:56;9.88;;;2.78;;
12493;SDS011;8260;51.422;6.786;2022-11-24T10:01:27;11.88;;;3.33;;
12493;SDS011;8260;51.422;6.786;2022-11-24T10:03:56;8.82;;;2.80;;
12493;SDS011;8260;51.422;6.786;2022-11-24T10:06:34;11.90;;;3.40;;
12493;SDS011;8260;51.422;6.786;2022-11-24T10:09:07;10.32;;;3.05;;
12493;SDS011;8260;51.422;6.786;2022-11-24T10:11:37;6.35;;;2.65;;
12493;SDS011;8260;51.422;6.786;2022-11-24T10:14:12;11.65;;;2.83;;
12493;SDS011;8260;51.422;6.786;2022-11-24T10:16:45;8.25;;;2.55;;
12493;SDS011;8260;51.422;6.786;2022-11-24T10:19:21;6.30;;;2.80;;
12493;SDS011;8260;51.422;6.786;2022-11-24T10:22:06;9.45;;;2.72;;
12493;SDS011;8260;51.422;6.786;2022-11-24T10:24:47;13.07;;;3.30;;
12493;SDS011;8260;51.422;6.786;2022-11-24T10:27:17;11.18;;;3.00;;
12493;SDS011;8260;51.422;6.786;2022-11-24T10:29:47;9.80;;;2.75;;
12493;SDS011;8260;51.422;6.786;2022-11-24T10:32:16;10.43;;;3.00;;
12493;SDS011;8260;51.422;6.786;2022-11-24T10:34:46;8.70;;;3.05;;
12493;SDS011;8260;51.422;6.786;2022-11-24T10:37:18;9.38;;;3.13;;
12493;SDS011;8260;51.422;6.786;2022-11-24T10:39:50;8.45;;;3.20;;
12493;SDS011;8260;51.422;6.786;2022-11-24T10:42:25;8.35;;;3.03;;
12493;SDS011;8260;51.422;6.786;2022-11-24T10:44:58;12.07;;;3.15;;
12493;SDS011;8260;51.422;6.786;2022-11-24T10:47:27;9.23;;;3.35;;
12493;SDS011;8260;51.422;6.786;2022-11-24T10:49:57;11.52;;;3.15;;
12493;SDS011;8260;51.422;6.786;2022-11-24T10:52:29;10.65;;;2.75;;
12493;SDS011;8260;51.422;6.786;2022-11-24T10:54:59;11.38;;;2.83;;
12493;SDS011;8260;51.422;6.786;2022-11-24T10:57:29;10.85;;;3.33;;
12493;SDS011;8260;51.422;6.786;2022-11-24T10:59:58;9.93;;;3.22;;
12493;SDS011;8260;51.422;6.786;2022-11-24T11:02:31;7.75;;;2.67;;
12493;SDS011;8260;51.422;6.786;2022-11-24T11:07:44;10.32;;;2.80;;
12493;SDS011;8260;51.422;6.786;2022-11-24T11:10:17;9.20;;;3.05;;
12493;SDS011;8260;51.422;6.786;2022-11-24T11:12:46;7.75;;;2.53;;
12493;SDS011;8260;51.422;6.786;2022-11-24T11:15:19;10.68;;;3.33;;
12493;SDS011;8260;51.422;6.786;2022-11-24T11:17:48;7.35;;;3.10;;
12493;SDS011;8260;51.422;6.786;2022-11-24T11:20:25;8.15;;;3.20;;
12493;SDS011;8260;51.422;6.786;2022-11-24T11:22:55;12.50;;;3.13;;
12493;SDS011;8260;51.422;6.786;2022-11-24T11:25:26;11.85;;;4.18;;
12493;SDS011;8260;51.422;6.786;2022-11-24T11:28:09;9.27;;;3.08;;
12493;SDS011;8260;51.422;6.786;2022-11-24T11:30:47;6.97;;;2.97;;
12493;SDS011;8260;51.422;6.786;2022-11-24T11:33:42;11.43;;;2.95;;
12493;SDS011;8260;51.422;6.786;2022-11-24T11:36:31;10.27;;;2.60;;
12493;SDS011;8260;51.422;6.786;2022-11-24T11:39:01;13.50;;;3.17;;
12493;SDS011;8260;51.422;6.786;2022-11-24T11:41:31;9.73;;;2.83;;
12493;SDS011;8260;51.422;6.786;2022-11-24T11:44:12;11.60;;;3.33;;
12493;SDS011;8260;51.422;6.786;2022-11-24T11:46:42;10.40;;;3.03;;
12493;SDS011;8260;51.422;6.786;2022-11-24T11:49:10;12.50;;;2.95;;
12493;SDS011;8260;51.422;6.786;2022-11-24T11:51:50;11.82;;;3.28;;
12493;SDS011;8260;51.422;6.786;2022-11-24T11:54:25;8.35;;;3.00;;
12493;SDS011;8260;51.422;6.786;2022-11-24T11:57:00;11.35;;;3.67;;
12493;SDS011;8260;51.422;6.786;2022-11-24T12:04:59;9.23;;;2.95;;
12493;SDS011;8260;51.422;6.786;2022-11-24T12:07:42;9.88;;;2.78;;
12493;SDS011;8260;51.422;6.786;2022-11-24T12:10:19;9.23;;;3.20;;
12493;SDS011;8260;51.422;6.786;2022-11-24T12:12:54;12.40;;;3.72;;
12493;SDS011;8260;51.422;6.786;2022-11-24T12:15:27;11.60;;;3.13;;
12493;SDS011;8260;51.422;6.786;2022-11-24T12:18:01;11.20;;;2.63;;
12493;SDS011;8260;51.422;6.786;2022-11-24T12:20:35;14.43;;;3.45;;
12493;SDS011;8260;51.422;6.786;2022-11-24T12:23:10;10.55;;;3.28;;
12493;SDS011;8260;51.422;6.786;2022-11-24T12:25:46;9.25;;;3.63;;
12493;SDS011;8260;51.422;6.786;2022-11-24T12:28:20;12.40;;;3.30;;
12493;SDS011;8260;51.422;6.786;2022-11-24T12:30:52;13.32;;;3.22;;
12493;SDS011;8260;51.422;6.786;2022-11-24T12:33:32;11.40;;;3.38;;
12493;SDS011;8260;51.422;6.786;2022-11-24T12:36:05;14.40;;;3.53;;
12493;SDS011;8260;51.422;6.786;2022-11-24T12:38:41;8.98;;;3.03;;
12493;SDS011;8260;51.422;6.786;2022-11-24T12:44:10;10.02;;;3.03;;
12493;SDS011;8260;51.422;6.786;2022-11-24T12:46:43;10.48;;;3.00;;
12493;SDS011;8260;51.422;6.786;2022-11-24T12:49:17;11.60;;;3.33;;
12493;SDS011;8260;51.422;6.786;2022-11-24T12:51:50;11.07;;;3.05;;
12493;SDS011;8260;51.422;6.786;2022-11-24T12:54:20;14.15;;;3.28;;
12493;SDS011;8260;51.422;6.786;2022-11-24T12:56:51;10.40;;;3.03;;
12493;SDS011;8260;51.422;6.786;2022-11-24T12:59:26;10.63;;;3.05;;
12493;SDS011;8260;51.422;6.786;2022-11-24T13:02:00;13.30;;;3.83;;
12493;SDS011;8260;51.422;6.786;2022-11-24T13:04:33;13.77;;;2.90;;
12493;SDS011;8260;51.422;6.786;2022-11-24T13:07:08;7.43;;;3.42;;
12493;SDS011;8260;51.422;6.786;2022-11-24T13:09:38;12.60;;;3.17;;
12493;SDS011;8260;51.422;6.786;2022-11-24T13:12:26;9.88;;;2.90;;
12493;SDS011;8260;51.422;6.786;2022-11-24T13:14:56;9.32;;;2.95;;
12493;SDS011;8260;51.422;6.786;2022-11-24T13:17:26;13.20;;;3.80;;
12493;SDS011;8260;51.422;6.786;2022-11-24T13:20:20;12.35;;;4.18;;
12493;SDS011;8260;51.422;6.786;2022-11-24T13:22:51;14.70;;;4.75;;
12493;SDS011;8260;51.422;6.786;2022-11-24T13:25:20;11.85;;;4.65;;
12493;SDS011;8260;51.422;6.786;2022-11-24T13:27:49;14.05;;;3.63;;
12493;SDS011;8260;51.422;6.786;2022-11-24T13:33:32;11.30;;;3.20;;
12493;SDS011;8260;51.422;6.786;2022-11-24T13:38:57;11.23;;;3.10;;
12493;SDS011;8260;51.422;6.786;2022-11-24T13:44:16;17.13;;;3.80;;
12493;SDS011;8260;51.422;6.786;2022-11-24T13:46:56;13.48;;;3.63;;
12493;SDS011;8260;51.422;6.786;2022-11-24T13:49:38;14.98;;;3.40;;
12493;SDS011;8260;51.422;6.786;2022-11-24T13:54:54;12.93;;;3.40;;
12493;SDS011;8260;51.422;6.786;2022-11-24T13:57:32;14.25;;;3.78;;
12493;SDS011;8260;51.422;6.786;2022-11-24T14:00:01;13.68;;;3.50;;
12493;SDS011;8260;51.422;6.786;2022-11-24T14:02:30;7.78;;;2.72;;
12493;SDS011;8260;51.422;6.786;2022-11-24T14:05:01;17.27;;;3.67;;
12493;SDS011;8260;51.422;6.786;2022-11-24T14:07:30;13.23;;;3.17;;
12493;SDS011;8260;51.422;6.786;2022-11-24T14:09:59;12.35;;;2.85;;
12493;SDS011;8260;51.422;6.786;2022-11-24T14:12:29;10.40;;;2.80;;
12493;SDS011;8260;51.422;6.786;2022-11-24T14:15:13;11.85;;;3.17;;
12493;SDS011;8260;51.422;6.786;2022-11-24T14:17:47;9.95;;;2.97;;
12493;SDS011;8260;51.422;6.786;2022-11-24T14:20:21;12.75;;;3.20;;
12493;SDS011;8260;51.422;6.786;2022-11-24T14:22:49;15.65;;;3.55;;
12493;SDS011;8260;51.422;6.786;2022-11-24T14:25:19;9.25;;;2.95;;
12493;SDS011;8260;51.422;6.786;2022-11-24T14:27:48;13.45;;;3.00;;
12493;SDS011;8260;51.422;6.786;2022-11-24T14:30:18;14.38;;;3.67;;
12493;SDS011;8260;51.422;6.786;2022-11-24T14:32:53;9.10;;;3.03;;
12493;SDS011;8260;51.422;6.786;2022-11-24T14:35:24;13.10;;;3.00;;
12493;SDS011;8260;51.422;6.786;2022-11-24T14:37:53;9.90;;;3.10;;
12493;SDS011;8260;51.422;6.786;2022-11-24T14:40:41;11.23;;;3.10;;
12493;SDS011;8260;51.422;6.786;2022-11-24T14:43:15;12.13;;;3.17;;
12493;SDS011;8260;51.422;6.786;2022-11-24T14:45:47;14.00;;;3.03;;
12493;SDS011;8260;51.422;6.786;2022-11-24T14:48:16;7.43;;;2.50;;
12493;SDS011;8260;51.422;6.786;2022-11-24T14:50:46;7.85;;;2.50;;
12493;SDS011;8260;51.422;6.786;2022-11-24T14:53:15;14.75;;;2.97;;
12493;SDS011;8260;51.422;6.786;2022-11-24T14:56:07;8.93;;;2.63;;
12493;SDS011;8260;51.422;6.786;2022-11-24T14:58:36;13.00;;;3.30;;
12493;SDS011;8260;51.422;6.786;2022-11-24T15:01:17;12.20;;;3.10;;
12493;SDS011;8260;51.422;6.786;2022-11-24T15:03:55;10.88;;;3.33;;
12493;SDS011;8260;51.422;6.786;2022-11-24T15:07:03;10.50;;;2.47;;
12493;SDS011;8260;51.422;6.786;2022-11-24T15:09:33;11.35;;;2.97;;
12493;SDS011;8260;51.422;6.786;2022-11-24T15:12:05;12.18;;;3.92;;
12493;SDS011;8260;51.422;6.786;2022-11-24T15:14:46;11.85;;;3.33;;
12493;SDS011;8260;51.422;6.786;2022-11-24T15:17:17;10.38;;;3.38;;
12493;SDS011;8260;51.422;6.786;2022-11-24T15:19:47;10.65;;;3.20;;
12493;SDS011;8260;51.422;6.786;2022-11-24T15:22:27;11.82;;;2.83;;
12493;SDS011;8260;51.422;6.786;2022-11-24T15:24:59;11.50;;;3.10;;
12493;SDS011;8260;51.422;6.786;2022-11-24T15:27:27;10.25;;;2.92;;
12493;SDS011;8260;51.422;6.786;2022-11-24T15:29:56;12.13;;;3.25;;
12493;SDS011;8260;51.422;6.786;2022-11-24T15:32:24;12.88;;;3.05;;
12493;SDS011;8260;51.422;6.786;2022-11-24T15:34:53;10.02;;;3.15;;